Tiempo atmosférico en la estación meteorológica de Alcañiz, Teruel (320 m.)



Fecha
DESCASC
Temp. máxima en grados centígrados (hora)
DESCASC
Temp. mínima en grados centígrados (hora)
DESCASC
Temp. media en grados centígrados
DESCASC
Racha de viento máxima en m/sg (hora)
DESCASC
Velocidad máxima media en intervalos de 10 minutos(hora)
DESCASC
Precipitaciones diarias en mm
DESCASC
Precipitaciones de 00:00 a 06:00 en mm
DESCASC
Precipitaciones de 06:00 a 12:00 en mm
DESCASC
Precipitaciones de 12:00 a 18:00 en mm
DESCASC
Precipitaciones de 18:00 a 24:00 en mm
DESCASC
18-01-2018 14.7 (16:00) 1.3 (08:30) 8 5.83 (02:50) 2.5 (01:10) 0 0 0 0 0
17-01-2018 12.9 (13:20) 6.1 (22:10) 9.5 21.11 (13:50) 11.11 (14:10) 0 0 0 0 0
16-01-2018 16.5 (15:20) 1.7 (08:50) 9.1 11.11 (13:20) 6.11 (13:30) 0 0 0 0 0
15-01-2018 11.1 (15:00) 0.2 (04:40) 5.7 5.83 (13:50) 3.33 (13:50) 0 0 0 0 0
14-01-2018 9.4 (14:00) 1.6 (00:00) 5.5 9.72 (15:30) 5.83 (15:40) 0 0 0 0 0
13-01-2018 7 (12:50) -0.9 (-00:0) 3.1 5 (15:00) 3.06 (15:00) 0 0 0 0 0
12-01-2018 11.6 (13:00) 2.7 (00:00) 7.2 11.39 (11:40) 5.83 (12:00) 0 0 0 0 0
11-01-2018 10.5 (15:10) 3.1 (00:00) 6.8 13.61 (13:00) 6.94 (15:10) 0 0 0 0 0
10-01-2018 12.1 (14:10) 0.2 (00:00) 6.2 12.22 (16:10) 6.67 (16:10) 0 0 0 0 0
09-01-2018 8.6 (12:40) -0.9 (-00:0) 3.9 3.89 (13:40) 2.5 (16:30) 0 0 0 0 0
08-01-2018 6.1 (16:10) 0.2 (00:00) 3.1 5.83 (14:30) 1.94 (13:20) 0 0 0 0 0
07-01-2018 7.4 (16:50) 1.3 (00:00) 4.4 4.72 (15:30) 3.06 (15:20) 0 0 0 0 0
06-01-2018 9.8 (14:30) 2.5 (00:00) 6.2 6.94 (19:00) 3.89 (19:20) 1.2 0 0 1.2 0
05-01-2018 17.9 (15:40) 4.1 (00:00) 11 8.89 (15:40) 4.44 (15:40) 0 0 0 0 0
04-01-2018 19.7 (14:40) 8.7 (07:40) 14.2 13.61 (12:40) 7.5 (12:40) 0 0 0 0 0
03-01-2018 20.2 (15:00) 7.5 (00:00) 13.9 13.06 (13:00) 7.22 (16:00) 0 0 0 0 0
02-01-2018 18.1 (14:10) 6.6 (00:00) 12.4 13.61 (15:50) 7.5 (12:50) 0 0 0 0 0
01-01-2018 15.5 (14:50) 3.3 (00:00) 9.4 13.89 (15:10) 8.06 (15:10) 0 0 0 0 0
31-12-2017 14.4 (17:10) 1.7 (00:00) 8 16.94 (21:30) 8.33 (21:30) 0 0 0 0 0
30-12-2017 19.1 (15:20) 5.1 (00:00) 12.1 11.67 (12:30) 6.39 (14:00) 0 0 0 0 0
29-12-2017 16 (15:40) 1.7 (00:00) 8.9 9.17 (15:50) 4.44 (16:10) 0.2 0 0.2 0 0
28-12-2017 10.4 (15:10) 4 (00:00) 7.2 5.28 (00:10) 2.78 (21:40) 0.1 0 0 0.1 0
27-12-2017 11.8 (12:40) 3.2 (00:00) 7.5 17.22 (11:40) 10 (12:10) 0.5 0.5 0 0 0
26-12-2017 10.9 (13:10) -2.4 (-00:0) 4.2 9.17 (16:40) 4.72 (16:30) 0.1 0 0 0 0.1
25-12-2017 1.9 (16:20) -2.5 (-00:0) -0.3 3.06 (18:10) 1.67 (15:20) 0 0 0 0 0
24-12-2017 8.2 (15:10) -3.2 (-00:0) 2.5 3.61 (16:00) 2.5 (15:30) 0 0 0 0 0

Gráficas

Temp. máximas Temp. mínimas Temp. medias Precipitaciones Rachas de viento máximas Velocidades máximas media en intervalos de 10 minutos

Datos horarios

Fecha y hora oficial Temperatura (ºC) Velocidad del viento (km/h) Dirección del viento Racha (km/h) Dirección de racha Precipitación (mm) Presión (hPa) Tendencia (hPa) Humedad (%)
2018-01-22 23:00:00 12.9 16 Oeste 33 Oeste 0 -- -- 70
2018-01-22 22:00:00 12.8 11 Oeste 23 Oeste 0 -- -- 72
2018-01-22 21:00:00 12.6 8 Sudoeste 25 Oeste 0 -- -- 69
2018-01-22 20:00:00 13.1 11 Oeste 31 Oeste 0 -- -- 65
2018-01-22 19:00:00 13.4 17 Oeste 42 Oeste 0 -- -- 59
2018-01-22 18:00:00 14.1 18 Oeste 40 Oeste 0 -- -- 55
2018-01-22 17:00:00 16.4 12 Oeste 30 Oeste 0 -- -- 48
2018-01-22 16:00:00 16.4 15 Oeste 29 Oeste 0 -- -- 49
2018-01-22 15:00:00 15.9 15 Oeste 34 Oeste 0 -- -- 51
2018-01-22 14:00:00 15.2 19 Noroeste 37 Oeste 0 -- -- 54
2018-01-22 13:00:00 15.3 17 Oeste 32 Oeste 0 -- -- 55
2018-01-22 12:00:00 14.6 13 Oeste 27 Oeste 0 -- -- 59
2018-01-22 11:00:00 14.6 12 Oeste 22 Oeste 0 -- -- 61
2018-01-22 10:00:00 11.2 5 Oeste 14 Oeste 0 -- -- 75
2018-01-22 09:00:00 8.2 3 Oeste 10 Sur 0 -- -- 85
2018-01-22 08:00:00 7.2 2 Oeste 12 Oeste 0 -- -- 86
2018-01-22 07:00:00 8.5 7 Oeste 14 Sudoeste 0 -- -- 83
2018-01-22 06:00:00 8.8 5 Oeste 21 Oeste 0 -- -- 80
2018-01-22 05:00:00 9.3 2 Oeste 19 Oeste 0 -- -- 79
2018-01-22 04:00:00 10.4 8 Oeste 24 Oeste 0 -- -- 77
2018-01-22 03:00:00 10.3 12 Oeste 31 Sudoeste 0 -- -- 76
2018-01-22 02:00:00 11.6 20 Oeste 39 Oeste 0 -- -- 73
2018-01-22 01:00:00 12.7 18 Oeste 29 Sudoeste 0 -- -- 72
2018-01-22 00:00:00 13.2 14 Oeste 28 Sudoeste 0 -- -- 72
2018-01-21 23:00:00 12.9 10 Sudoeste 26 Sudoeste 0 -- -- 77
2018-01-21 22:00:00 12.5 10 Sudoeste 30 Oeste 0 -- -- 76
2018-01-21 21:00:00 13.2 18 Oeste 39 Oeste 0 -- -- 72
2018-01-21 20:00:00 13.5 15 Oeste 40 Oeste 0 -- -- 70
2018-01-21 19:00:00 14.1 21 Oeste 49 Oeste 0 -- -- 67
2018-01-21 18:00:00 14.9 26 Oeste 53 Noroeste 0 -- -- 64
2018-01-21 17:00:00 16.3 23 Oeste 50 Oeste 0 -- -- 61
2018-01-21 16:00:00 17.1 29 Noroeste 55 Noroeste 0 -- -- 59
2018-01-21 15:00:00 17.2 30 Noroeste 58 Noroeste 0 -- -- 57
2018-01-21 14:00:00 17.2 32 Oeste 60 Oeste 0 -- -- 56
2018-01-21 13:00:00 17 29 Oeste 53 Oeste 0 -- -- 58
2018-01-21 12:00:00 16 30 Noroeste 58 Noroeste 0 -- -- 60
2018-01-21 11:00:00 15 24 Oeste 41 Oeste 0 -- -- 62
2018-01-21 10:00:00 13 18 Oeste 35 Oeste 0 -- -- 66
2018-01-21 09:00:00 12.7 13 Oeste 34 Sudoeste 0 -- -- 65
2018-01-21 08:00:00 13.1 15 Oeste 28 Sudoeste 0 -- -- 64
2018-01-21 07:00:00 13 9 Sudoeste 43 Oeste 0 -- -- 64
2018-01-21 06:00:00 13.7 20 Oeste 41 Oeste 0 -- -- 62
2018-01-21 05:00:00 13.8 20 Oeste 37 Oeste 0 -- -- 60
2018-01-21 04:00:00 13.8 20 Oeste 37 Oeste 0 -- -- 59
2018-01-21 03:00:00 13.4 10 Oeste 29 Oeste 0 -- -- 59
2018-01-21 02:00:00 12.7 14 Oeste 32 Oeste 0 -- -- 59
2018-01-21 01:00:00 13.3 17 Oeste 36 Oeste 0 -- -- 57
2018-01-21 00:00:00 13.9 20 Oeste 37 Oeste 0 -- -- 55
2018-01-20 23:00:00 13.4 13 Oeste 29 Oeste 0 -- -- 54
2018-01-20 22:00:00 13.2 12 Oeste 26 Oeste 0 -- -- 52
2018-01-20 21:00:00 12.7 11 Oeste 23 Oeste 0 -- -- 51
2018-01-20 20:00:00 12.5 8 Oeste 28 Oeste 0 -- -- 50
2018-01-20 19:00:00 13 11 Noroeste 26 Oeste 0 -- -- 49
2018-01-20 18:00:00 13.6 13 Noroeste 30 Noroeste 0 -- -- 44
2018-01-20 17:00:00 15.6 16 Noroeste 41 Oeste 0 -- -- 36
2018-01-20 16:00:00 16.8 24 Oeste 44 Oeste 0 -- -- 33
2018-01-20 15:00:00 16.9 24 Oeste 43 Oeste 0 -- -- 34
2018-01-20 14:00:00 15.8 23 Oeste 38 Oeste 0 -- -- 38
2018-01-20 13:00:00 14.2 17 Noroeste 30 Oeste 0 -- -- 47
2018-01-20 12:00:00 12.5 14 Noroeste 23 Oeste 0 -- -- 54
2018-01-20 11:00:00 11.4 4 Oeste 12 Sudoeste 0 -- -- 58
2018-01-20 10:00:00 8.5 7 Sur 13 Sur 0 -- -- 67
2018-01-20 09:00:00 5.7 9 Sur 15 Sur 0 -- -- 72
2018-01-20 08:00:00 5.5 7 Sudoeste 11 Sudoeste 0 -- -- 72
2018-01-20 07:00:00 5.7 4 Sur 21 Oeste 0 -- -- 72
2018-01-20 06:00:00 7.4 13 Oeste 31 Oeste 0 -- -- 68
2018-01-20 05:00:00 7.4 15 Oeste 29 Oeste 0 -- -- 69
2018-01-20 04:00:00 7.3 9 Oeste 28 Oeste 0 -- -- 69
2018-01-20 03:00:00 7.9 16 Oeste 35 Oeste 0 -- -- 68
2018-01-20 02:00:00 8.4 17 Oeste 37 Oeste 0 -- -- 67
2018-01-20 01:00:00 8.9 21 Oeste 41 Oeste 0 -- -- 67
2018-01-20 00:00:00 8.3 15 Oeste 41 Oeste 0 -- -- 72
2018-01-19 23:00:00 8.6 21 Oeste 42 Oeste 0 -- -- 72
2018-01-19 22:00:00 8.8 25 Oeste 41 Oeste 0 -- -- 75
2018-01-19 21:00:00 8.7 15 Oeste 37 Oeste 0 -- -- 72
2018-01-19 20:00:00 9.3 14 Oeste 32 Oeste 0 -- -- 71
2018-01-19 19:00:00 10.4 17 Oeste 32 Noroeste 0 -- -- 67
2018-01-19 18:00:00 12.2 18 Oeste 38 Oeste 0 -- -- 63
2018-01-19 17:00:00 13.5 20 Oeste 48 Noroeste 0 -- -- 57
2018-01-19 16:00:00 14.1 24 Noroeste 44 Oeste 0 -- -- 55
2018-01-19 15:00:00 14 23 Oeste 44 Oeste 0 -- -- 54
2018-01-19 14:00:00 13.4 24 Oeste 41 Oeste 0 -- -- 55
2018-01-19 13:00:00 13.5 21 Oeste 41 Oeste 0 -- -- 58
2018-01-19 12:00:00 12.6 20 Oeste 42 Oeste 0 -- -- 62
2018-01-19 11:00:00 11.6 18 Oeste 35 Oeste 0 -- -- 67
2018-01-19 10:00:00 10.1 7 Sudoeste 19 Sudoeste 0 -- -- 77
2018-01-19 09:00:00 8.2 7 Sudoeste 22 Oeste 0 -- -- 80
2018-01-19 08:00:00 8.1 12 Oeste 25 Oeste 0 -- -- 82
2018-01-19 07:00:00 4.2 3 Sur 7 Sudoeste 0 -- -- 89
2018-01-19 06:00:00 5.2 5 Sudoeste 19 Sur 0 -- -- 83
2018-01-19 05:00:00 7.1 8 Sudoeste 16 Oeste 0 -- -- 82
2018-01-19 04:00:00 4.8 0 Calma 9 Sur 0 -- -- 84
2018-01-19 03:00:00 4.3 5 Sur 11 Sudeste 0 -- -- 84
2018-01-19 02:00:00 2.8 4 Oeste 13 Sudoeste 0 -- -- 86
2018-01-19 01:00:00 2.4 0 Calma 5 Oeste 0 -- -- 90
2018-01-19 00:00:00 3.2 0 Calma 8 Sudoeste 0 -- -- 84
2018-01-18 23:00:00 5.7 5 Sudoeste 8 Sudoeste 0 -- -- 71
2018-01-18 22:00:00 6 3 Sudoeste 10 Sudoeste 0 -- -- 71
2018-01-18 21:00:00 5.9 5 Sudoeste 10 Sudoeste 0 -- -- 72
2018-01-18 20:00:00 5.4 3 Oeste 5 Oeste 0 -- -- 75
2018-01-18 19:00:00 8.5 0 Calma 4 Sur 0 -- -- 61
2018-01-18 18:00:00 11.6 2 Oeste 6 Sudoeste 0 -- -- 50
2018-01-18 17:00:00 14.2 2 Sudoeste 12 Oeste 0 -- -- 45
2018-01-18 16:00:00 14.4 5 Oeste 12 Este 0 -- -- 43
2018-01-18 15:00:00 13.6 6 Nordeste 12 Este 0 -- -- 48
2018-01-18 14:00:00 12.6 4 Norte 12 Norte 0 -- -- 46
2018-01-18 13:00:00 11.7 3 Noroeste 9 Oeste 0 -- -- 48
2018-01-18 12:00:00 11 3 Sur 9 Sudeste 0 -- -- 52
2018-01-18 11:00:00 8.6 4 Sur 12 Sudoeste 0 -- -- 65
2018-01-18 10:00:00 4.7 4 Sur 8 Sudoeste 0 -- -- 79
2018-01-18 09:00:00 2.5 4 Sudoeste 8 Sudoeste 0 -- -- 89
2018-01-18 08:00:00 2.3 2 Oeste 12 Sudoeste 0 -- -- 88
2018-01-18 07:00:00 2.6 4 Sur 13 Sudoeste 0 -- -- 88
2018-01-18 06:00:00 2.7 3 Sur 10 Sudoeste 0 -- -- 88
2018-01-18 05:00:00 2.8 5 Sudoeste 10 Oeste 0 -- -- 87
2018-01-18 04:00:00 3.9 2 Oeste 10 Sudoeste 0 -- -- 83
2018-01-18 03:00:00 5 6 Sudoeste 21 Oeste 0 -- -- 81
2018-01-18 02:00:00 4.7 2 Sudeste 18 Sudoeste 0 -- -- 80
2018-01-18 01:00:00 4.9 3 Sudoeste 14 Oeste 0 -- -- 79
2018-01-18 00:00:00 6.4 7 Sudoeste 13 Sudoeste 0 -- -- 74
2018-01-17 23:00:00 7.2 7 Sudoeste 23 Sudoeste 0 -- -- 71
2018-01-17 22:00:00 6.3 0 Calma 12 Oeste 0 -- -- 74
2018-01-17 21:00:00 7.6 4 Sudoeste 27 Oeste 0 -- -- 69
2018-01-17 20:00:00 8.6 9 Sudoeste 17 Sur 0 -- -- 66
2018-01-17 19:00:00 8.9 5 Sudoeste 23 Oeste 0 -- -- 63
2018-01-17 18:00:00 10 15 Oeste 63 Noroeste 0 -- -- 57
2018-01-17 17:00:00 11.3 25 Oeste 65 Noroeste 0 -- -- 53
2018-01-17 16:00:00 12.1 30 Oeste 65 Noroeste 0 -- -- 50
2018-01-17 15:00:00 11.7 33 Oeste 70 Oeste 0 -- -- 53
2018-01-17 14:00:00 12.4 35 Oeste 76 Oeste 0 -- -- 52
2018-01-17 13:00:00 12.2 29 Oeste 69 Oeste 0 -- -- 53
2018-01-17 12:00:00 12 33 Noroeste 61 Noroeste 0 -- -- 55
2018-01-17 11:00:00 11.4 30 Noroeste 53 Noroeste 0 -- -- 62
2018-01-17 10:00:00 11.2 22 Oeste 41 Oeste 0 -- -- 69
2018-01-17 09:00:00 10.9 18 Oeste 37 Sudoeste 0 -- -- 71
2018-01-17 08:00:00 11 14 Oeste 30 Oeste 0 -- -- 71
2018-01-17 07:00:00 12 18 Oeste 40 Oeste 0 -- -- 66
2018-01-17 06:00:00 11.9 16 Oeste 39 Oeste 0 -- -- 66
2018-01-17 05:00:00 12.2 15 Oeste 25 Oeste 0 -- -- 68
2018-01-17 04:00:00 10.4 4 Sudoeste 22 Sudoeste 0 -- -- 71
2018-01-17 03:00:00 10.5 11 Sudoeste 20 Sudoeste 0 -- -- 73
2018-01-17 02:00:00 9.6 11 Oeste 21 Oeste 0 -- -- 73
2018-01-17 01:00:00 11 15 Oeste 30 Oeste 0 -- -- 69
2018-01-17 00:00:00 10 13 Oeste 19 Oeste 0 -- -- 81
2018-01-16 23:00:00 7.2 0 Calma 9 Oeste 0 -- -- 85
2018-01-16 22:00:00 9.7 7 Oeste 21 Noroeste 0 -- -- 76
2018-01-16 21:00:00 8.1 0 Calma 6 Sudeste 0 -- -- 83
2018-01-16 20:00:00 9.6 0 Calma 15 Oeste 0 -- -- 75
2018-01-16 19:00:00 11.4 9 Oeste 33 Noroeste 0 -- -- 67
2018-01-16 18:00:00 12.8 18 Oeste 35 Oeste 0 -- -- 60
2018-01-16 17:00:00 14.9 17 Oeste 35 Oeste 0 -- -- 52
2018-01-16 16:00:00 15.7 20 Oeste 35 Noroeste 0 -- -- 49
2018-01-16 15:00:00 16.4 19 Oeste 37 Oeste 0 -- -- 48
2018-01-16 14:00:00 16 19 Oeste 40 Oeste 0 -- -- 48
2018-01-16 13:00:00 15 19 Oeste 35 Oeste 0 -- -- 52
2018-01-16 12:00:00 12.5 8 Oeste 17 Oeste 0 -- -- 56
2018-01-16 11:00:00 10.9 2 Sudoeste 7 Sur 0 -- -- 66
2018-01-16 10:00:00 6.8 0 Calma 4 Sudoeste 0 -- -- 77
2018-01-16 09:00:00 3.4 0 Calma 8 Oeste 0 -- -- 86
2018-01-16 08:00:00 2.3 0 Calma 4 Oeste 0 -- -- 86
2018-01-16 07:00:00 2.9 0 Calma 8 Sudoeste 0 -- -- 82
2018-01-16 06:00:00 3.2 3 Oeste 9 Sudoeste 0 -- -- 79
2018-01-16 05:00:00 3.3 5 Sudoeste 11 Oeste 0 -- -- 76
2018-01-16 04:00:00 4.2 6 Oeste 10 Oeste 0 -- -- 76
2018-01-16 03:00:00 2.7 2 Oeste 5 Sudoeste 0 -- -- 86
2018-01-16 02:00:00 3 0 Calma 6 Sudoeste 0 -- -- 88
2018-01-16 01:00:00 2.6 0 Calma 5 Sudoeste 0 -- -- 89
2018-01-16 00:00:00 2.3 0 Calma 8 Sudoeste 0 -- -- 92
2018-01-15 23:00:00 2.6 5 Sudoeste 7 Sudoeste 0 -- -- 93
2018-01-15 22:00:00 3 0 Calma 4 Oeste 0 -- -- 90
2018-01-15 21:00:00 4.4 0 Calma 5 Noroeste 0 -- -- 83
2018-01-15 20:00:00 6 5 Oeste 7 Sudoeste 0 -- -- 75
2018-01-15 19:00:00 7 4 Sur 8 Sur 0 -- -- 69
2018-01-15 18:00:00 8.4 0 Calma 14 Oeste 0 -- -- 60
2018-01-15 17:00:00 9.7 6 Noroeste 14 Noroeste 0 -- -- 54
2018-01-15 16:00:00 10.1 9 Noroeste 21 Oeste 0 -- -- 52
2018-01-15 15:00:00 11.1 10 Oeste 21 Noroeste 0 -- -- 51
2018-01-15 14:00:00 9.7 10 Oeste 21 Oeste 0 -- -- 55
2018-01-15 13:00:00 9.3 8 Oeste 20 Oeste 0 -- -- 60
2018-01-15 12:00:00 8.4 8 Oeste 15 Oeste 0 -- -- 67
2018-01-15 11:00:00 5.1 0 Calma -- -- 0 -- -- 85
2018-01-15 10:00:00 3.2 0 Calma 7 Sudoeste 0 -- -- 91
2018-01-15 09:00:00 1.7 3 Noroeste 4 Oeste 0 -- -- 94
2018-01-15 08:00:00 1.1 0 Calma 5 Sudoeste 0 -- -- 94
2018-01-15 07:00:00 0.9 0 Calma 5 Sudoeste 0 -- -- 95
2018-01-15 06:00:00 1.3 2 Oeste 6 Sudoeste 0 -- -- 95
2018-01-15 05:00:00 0.9 0 Calma 5 Sudoeste 0 -- -- 95
2018-01-15 04:00:00 1 3 Sudoeste 8 Sudoeste 0 -- -- 95
2018-01-15 03:00:00 1 0 Calma -- -- 0 -- -- 94
2018-01-15 02:00:00 1.3 0 Calma 6 Oeste 0 -- -- 93
2018-01-15 01:00:00 2.7 6 Sudoeste 9 Sudoeste 0 -- -- 90
2018-01-15 00:00:00 1.6 0 Calma 6 Sudoeste 0 -- -- 88
2018-01-14 23:00:00 3.6 0 Calma 6 Sudoeste 0 -- -- 83
2018-01-14 22:00:00 5.1 3 Sudoeste 9 Sudoeste 0 -- -- 78
2018-01-14 21:00:00 6 4 Sudoeste 8 Oeste 0 -- -- 78
2018-01-14 20:00:00 6.4 0 Calma -- -- 0 -- -- 80
2018-01-14 19:00:00 6.9 0 Calma 17 Oeste 0 -- -- 72
2018-01-14 18:00:00 7.4 6 Oeste 26 Oeste 0 -- -- 68
2018-01-14 17:00:00 7.9 15 Oeste 32 Oeste 0 -- -- 65
2018-01-14 16:00:00 8.5 18 Noroeste 35 Noroeste 0 -- -- 63
2018-01-14 15:00:00 8.4 17 Noroeste 32 Noroeste 0 -- -- 64
2018-01-14 14:00:00 9.3 18 Noroeste 28 Noroeste 0 -- -- 63
2018-01-14 13:00:00 8.9 18 Oeste 30 Oeste 0 -- -- 58
2018-01-14 12:00:00 8.5 14 Oeste 28 Oeste 0 -- -- 61
2018-01-14 11:00:00 7.1 2 Sur 6 Sudoeste 0 -- -- 82
2018-01-14 10:00:00 5.2 2 Sudoeste 8 Sudoeste 0 -- -- 86
2018-01-14 09:00:00 4.6 0 Calma 5 Oeste 0 -- -- 93
2018-01-14 08:00:00 4.5 3 Sudoeste 12 Oeste 0 -- -- 92
2018-01-14 07:00:00 4.3 2 Sur 6 Sur 0 -- -- 94
2018-01-14 06:00:00 4.5 4 Oeste 19 Noroeste 0 -- -- 92
2018-01-14 05:00:00 4.8 9 Oeste 21 Oeste 0 -- -- 87
2018-01-14 04:00:00 5.3 11 Oeste 22 Oeste 0 -- -- 84
2018-01-14 03:00:00 4.6 0 Calma 6 Sudoeste 0 -- -- 98
2018-01-14 02:00:00 4.4 0 Calma 4 Sur 0 -- -- 98
2018-01-14 01:00:00 4.1 0 Calma 5 Oeste 0 -- -- 97
2018-01-14 00:00:00 4.3 0 Calma 6 Sudoeste 0 -- -- 96
2018-01-13 23:00:00 4.4 0 Calma 10 Sur 0 -- -- 94
2018-01-13 22:00:00 4.8 4 Sur 13 Oeste 0 -- -- 93
2018-01-13 21:00:00 4.5 0 Calma 10 Sudoeste 0 -- -- 90
2018-01-13 20:00:00 4.6 3 Sur 7 Sudoeste 0 -- -- 87
2018-01-13 19:00:00 4.8 4 Sudoeste 14 Noroeste 0 -- -- 86
2018-01-13 18:00:00 5.1 7 Noroeste 12 Noroeste 0 -- -- 84
2018-01-13 17:00:00 6.4 0 Calma 11 Oeste 0 -- -- 80
2018-01-13 16:00:00 5.9 6 Oeste 14 Oeste 0 -- -- 81
2018-01-13 15:00:00 5.8 11 Oeste 18 Oeste 0 -- -- 80
2018-01-13 14:00:00 6 4 Norte 14 Noroeste 0 -- -- 81
2018-01-13 13:00:00 6.7 6 Este 12 Este 0 -- -- 75
2018-01-13 12:00:00 6.4 5 Este 8 Este 0 -- -- 75
2018-01-13 11:00:00 3.8 0 Calma 7 Sudoeste 0 -- -- 84
2018-01-13 10:00:00 1.5 0 Calma 5 Sudoeste 0 -- -- 91
2018-01-13 09:00:00 -0.4 0 Calma 4 Sudoeste 0 -- -- 96
2018-01-13 08:00:00 -0.4 0 Calma -- -- 0 -- -- 96
2018-01-13 07:00:00 -0.7 0 Calma 4 Norte 0 -- -- 96
2018-01-13 06:00:00 -0.4 3 Este 6 Este 0 -- -- 95
2018-01-13 05:00:00 0.5 3 Oeste 5 Oeste 0 -- -- 91
2018-01-13 04:00:00 1.1 0 Calma 6 Oeste 0 -- -- 90
2018-01-13 03:00:00 2 3 Oeste 10 Oeste 0 -- -- 88
2018-01-13 02:00:00 2.2 0 Calma 9 Sudoeste 0 -- -- 86
2018-01-13 01:00:00 2.1 0 Calma 8 Oeste 0 -- -- 87
2018-01-13 00:00:00 2.9 5 Oeste 8 Oeste 0 -- -- 85
2018-01-12 23:00:00 3.1 4 Oeste 7 Oeste 0 -- -- 86
2018-01-12 22:00:00 3.8 2 Sur 8 Sudoeste 0 -- -- 83
2018-01-12 21:00:00 3.7 0 Calma 8 Sudoeste 0 -- -- 83
2018-01-12 20:00:00 6 2 Sudeste 6 Oeste 0 -- -- 75
2018-01-12 19:00:00 7.9 5 Sudoeste 12 Sudoeste 0 -- -- 66
2018-01-12 18:00:00 9.5 7 Noroeste 21 Oeste 0 -- -- 59
2018-01-12 17:00:00 10.3 11 Oeste 24 Oeste 0 -- -- 57
2018-01-12 16:00:00 10.4 13 Oeste 30 Noroeste 0 -- -- 57
2018-01-12 15:00:00 10.2 16 Oeste 31 Oeste 0 -- -- 59
2018-01-12 14:00:00 10.2 15 Noroeste 31 Noroeste 0 -- -- 59
2018-01-12 13:00:00 11 18 Oeste 33 Noroeste 0 -- -- 56
2018-01-12 12:00:00 9.8 21 Oeste 41 Oeste 0 -- -- 61
2018-01-12 11:00:00 9.5 17 Oeste 33 Oeste 0 -- -- 65
2018-01-12 10:00:00 8.5 15 Oeste 27 Oeste 0 -- -- 71
2018-01-12 09:00:00 6.7 11 Oeste 21 Oeste 0 -- -- 75
2018-01-12 08:00:00 6.3 8 Sudoeste 24 Oeste 0 -- -- 76
2018-01-12 07:00:00 6.3 11 Sudoeste 31 Oeste 0 -- -- 76
2018-01-12 06:00:00 6.1 12 Oeste 24 Oeste 0 -- -- 77
2018-01-12 05:00:00 5.7 6 Oeste 16 Oeste 0 -- -- 79
2018-01-12 04:00:00 6 7 Sudoeste 19 Oeste 0 -- -- 79
2018-01-12 03:00:00 4.8 4 Sudoeste 18 Sur 0 -- -- 80
2018-01-12 02:00:00 4.8 6 Sudoeste 18 Noroeste 0 -- -- 79
2018-01-12 01:00:00 5.6 10 Oeste 22 Oeste 0 -- -- 73
2018-01-12 00:00:00 6.4 12 Oeste 26 Oeste 0 -- -- 70
2018-01-11 23:00:00 5.1 10 Oeste 32 Noroeste 0 -- -- 74
2018-01-11 22:00:00 5.8 22 Oeste 39 Oeste 0 -- -- 71
2018-01-11 21:00:00 6.1 13 Oeste 25 Noroeste 0 -- -- 69
2018-01-11 20:00:00 7.1 15 Oeste 26 Oeste 0 -- -- 63
2018-01-11 19:00:00 7 12 Oeste 22 Noroeste 0 -- -- 62
2018-01-11 18:00:00 7.7 13 Noroeste 36 Oeste 0 -- -- 59
2018-01-11 17:00:00 8.7 17 Oeste 31 Oeste 0 -- -- 54
2018-01-11 16:00:00 8.9 17 Noroeste 45 Oeste 0 -- -- 50
2018-01-11 15:00:00 10.1 22 Noroeste 48 Oeste 0 -- -- 50
2018-01-11 14:00:00 9.3 21 Noroeste 43 Oeste 0 -- -- 52
2018-01-11 13:00:00 8.9 23 Oeste 49 Oeste 0 -- -- 53
2018-01-11 12:00:00 8 15 Noroeste 28 Noroeste 0 -- -- 62
2018-01-11 11:00:00 5.7 4 Oeste 15 Noroeste 0 -- -- 68
2018-01-11 10:00:00 5.1 8 Noroeste 19 Noroeste 0 -- -- 69
2018-01-11 09:00:00 5 10 Noroeste 17 Noroeste 0 -- -- 68
2018-01-11 08:00:00 4.2 5 Noroeste 13 Noroeste 0 -- -- 68
2018-01-11 07:00:00 4.4 5 Oeste 12 Oeste 0 -- -- 66
2018-01-11 06:00:00 5.3 5 Noroeste 25 Noroeste 0 -- -- 64
2018-01-11 05:00:00 5.6 15 Oeste 32 Oeste 0 -- -- 64
2018-01-11 04:00:00 5.3 13 Oeste 24 Oeste 0 -- -- 64
2018-01-11 03:00:00 4.7 9 Oeste 27 Oeste 0 -- -- 67
2018-01-11 02:00:00 5.6 16 Oeste 37 Oeste 0 -- -- 63
2018-01-11 01:00:00 7.2 16 Oeste 42 Oeste 0 -- -- 59
2018-01-11 00:00:00 7.8 18 Oeste 43 Oeste 0 -- -- 60
2018-01-10 23:00:00 8.4 14 Oeste 26 Oeste 0 -- -- 61
2018-01-10 22:00:00 8.7 17 Oeste 27 Oeste 0 -- -- 63
2018-01-10 21:00:00 6.6 3 Sudoeste 8 Noroeste 0 -- -- 70
2018-01-10 20:00:00 8.5 2 Sudoeste 11 Oeste 0 -- -- 63
2018-01-10 19:00:00 8.7 0 Calma 9 Sudoeste 0 -- -- 61
2018-01-10 18:00:00 9.9 9 Oeste 22 Oeste 0 -- -- 56
2018-01-10 17:00:00 10.2 11 Sudoeste 44 Sudoeste 0 -- -- 54
2018-01-10 16:00:00 11.3 18 Oeste 38 Oeste 0 -- -- 55
2018-01-10 15:00:00 11.1 11 Noroeste 24 Noroeste 0 -- -- 59
2018-01-10 14:00:00 11.4 14 Noroeste 28 Noroeste 0 -- -- 56
2018-01-10 13:00:00 11 10 Noroeste 16 Noroeste 0 -- -- 59
2018-01-10 12:00:00 9.1 0 Calma 8 Sudoeste 0 -- -- 74
2018-01-10 11:00:00 6.4 2 Sur 5 Sudeste 0 -- -- 87
2018-01-10 10:00:00 2.6 2 Oeste 5 Oeste 0 -- -- 99
2018-01-10 09:00:00 1.5 0 Calma -- -- 0 -- -- 99
2018-01-10 08:00:00 0.9 0 Calma -- -- 0 -- -- 99
2018-01-10 07:00:00 0.7 0 Calma -- -- 0 -- -- 99
2018-01-10 06:00:00 1.8 0 Calma -- -- 0 -- -- 98
2018-01-10 05:00:00 2.1 0 Calma -- -- 0 -- -- 98
2018-01-10 04:00:00 2.4 0 Calma -- -- 0 -- -- 98
2018-01-10 03:00:00 2.9 0 Calma -- -- 0 -- -- 97
2018-01-10 02:00:00 3.8 0 Calma -- -- 0 -- -- 96
2018-01-10 01:00:00 3.9 0 Calma -- -- 0 -- -- 96
2018-01-10 00:00:00 3.9 0 Calma 8 Norte 0 -- -- 94
2018-01-09 23:00:00 3.8 3 Noroeste 6 Noroeste 0 -- -- 94
2018-01-09 22:00:00 4 2 Sudeste 8 Este 0 -- -- 93
2018-01-09 21:00:00 4.2 2 Este 8 Oeste 0 -- -- 92
2018-01-09 20:00:00 3.2 0 Calma -- -- 0 -- -- 93
2018-01-09 19:00:00 4 0 Calma 5 Este 0 -- -- 89
2018-01-09 18:00:00 5.1 3 Nordeste 9 Nordeste 0 -- -- 81
2018-01-09 17:00:00 6.6 7 Nordeste 13 Este 0 -- -- 75
2018-01-09 16:00:00 6.7 6 Este 10 Este 0 -- -- 68
2018-01-09 15:00:00 7.5 7 Nordeste 11 Nordeste 0 -- -- 57
2018-01-09 14:00:00 7.8 5 Este 14 Este 0 -- -- 52
2018-01-09 13:00:00 8 2 Nordeste 7 Nordeste 0 -- -- 52
2018-01-09 12:00:00 6.5 0 Calma 6 Sudeste 0 -- -- 63
2018-01-09 11:00:00 3.6 0 Calma -- -- 0 -- -- 74
2018-01-09 10:00:00 2.2 0 Calma 5 Sur 0 -- -- 79
2018-01-09 09:00:00 0.2 2 Sudoeste 10 Sudoeste 0 -- -- 86
2018-01-09 08:00:00 0 4 Sur 12 Sudoeste 0 -- -- 86
2018-01-09 07:00:00 0 4 Sur 7 Sudoeste 0 -- -- 86
2018-01-09 06:00:00 0 4 Sudoeste 9 Sudoeste 0 -- -- 87
2018-01-09 05:00:00 0 5 Sudoeste 9 Sur 0 -- -- 90
2018-01-09 04:00:00 -0.2 3 Sudoeste 8 Oeste 0 -- -- 92
2018-01-09 03:00:00 0.5 4 Sudoeste 8 Sudoeste 0 -- -- 89
2018-01-09 02:00:00 0.9 4 Sudoeste 8 Sudoeste 0 -- -- 89
2018-01-09 01:00:00 1.1 0 Calma 13 Sudoeste 0 -- -- 91
2018-01-09 00:00:00 1 5 Sudoeste 13 Sudoeste 0 -- -- 94
2018-01-08 23:00:00 0.7 4 Sudoeste 8 Sudoeste 0 -- -- 96
2018-01-08 22:00:00 1.6 0 Calma 5 Sudeste 0 -- -- 95
2018-01-08 21:00:00 2.4 2 Sudoeste 7 Oeste 0 -- -- 95
2018-01-08 20:00:00 3 5 Oeste 8 Oeste 0 -- -- 95
2018-01-08 19:00:00 3.4 0 Calma 7 Sur 0 -- -- 92
2018-01-08 18:00:00 4.3 0 Calma 8 Sudoeste 0 -- -- 86
2018-01-08 17:00:00 5.5 5 Oeste 9 Oeste 0 -- -- 79
2018-01-08 16:00:00 5.6 4 Oeste 11 Oeste 0 -- -- 78
2018-01-08 15:00:00 5.1 5 Norte 21 Oeste 0 -- -- 81
2018-01-08 14:00:00 4.5 5 Oeste 13 Oeste 0 -- -- 82
2018-01-08 13:00:00 4.4 4 Oeste 12 Noroeste 0 -- -- 86
2018-01-08 12:00:00 -- 6 Oeste 9 Sudoeste 0 -- -- --
2018-01-08 11:00:00 3.5 5 Sudoeste 8 Sur 0 -- -- 89
2018-01-08 10:00:00 2.6 0 Calma 6 Sudoeste 0 -- -- 92
2018-01-08 09:00:00 2 0 Calma 9 Sur 0 -- -- 94
2018-01-08 08:00:00 1.8 0 Calma 9 Sudoeste 0 -- -- 95
2018-01-08 07:00:00 1.4 3 Sur 9 Sudoeste 0 -- -- 98
2018-01-08 06:00:00 0.9 0 Calma 6 Sudoeste 0 -- -- 98
2018-01-08 05:00:00 0.4 0 Calma -- -- 0 -- -- 98
2018-01-08 04:00:00 1.6 0 Calma 4 Sur 0 -- -- 98
2018-01-08 03:00:00 2.1 0 Calma 8 Sudoeste 0 -- -- 98
2018-01-08 02:00:00 1.9 4 Sur 8 Sur 0 -- -- 98
2018-01-08 01:00:00 1.3 0 Calma 4 Sudoeste 0 -- -- 98
2018-01-08 00:00:00 1.4 0 Calma -- -- 0 -- -- 98
2018-01-07 23:00:00 1.7 0 Calma 4 Sudoeste 0 -- -- 97
2018-01-07 22:00:00 3.1 0 Calma 8 Sudoeste 0 -- -- 95
2018-01-07 21:00:00 3.9 5 Noroeste 6 Oeste 0 -- -- 93
2018-01-07 20:00:00 6 0 Calma 6 Noroeste 0 -- -- 88
2018-01-07 19:00:00 6.2 4 Sudoeste 10 Oeste 0 -- -- 88
2018-01-07 18:00:00 6.2 6 Oeste 13 Oeste 0 -- -- 88
2018-01-07 17:00:00 6.7 8 Noroeste 12 Noroeste 0 -- -- 88
2018-01-07 16:00:00 6.8 4 Este 17 Este 0 -- -- 90
2018-01-07 15:00:00 5.9 9 Nordeste 14 Nordeste 0 -- -- 90
2018-01-07 14:00:00 5.5 6 Nordeste 13 Este 0 -- -- 90
2018-01-07 13:00:00 -- -- -- -- -- -- -- -- --
2018-01-07 12:00:00 -- -- -- -- -- -- -- -- --
2018-01-07 11:00:00 -- -- -- -- -- -- -- -- --
2018-01-07 10:00:00 -- -- -- -- -- -- -- -- --
2018-01-07 09:00:00 -- -- -- -- -- -- -- -- --
2018-01-07 08:00:00 -- -- -- -- -- -- -- -- --
2018-01-07 07:00:00 -- -- -- -- -- -- -- -- --
2018-01-07 06:00:00 -- -- -- -- -- -- -- -- --
2018-01-07 05:00:00 -- -- -- -- -- -- -- -- --
2018-01-07 04:00:00 -- -- -- -- -- -- -- -- --
2018-01-07 03:00:00 -- -- -- -- -- -- -- -- --
2018-01-07 02:00:00 -- -- -- -- -- -- -- -- --
2018-01-07 01:00:00 -- -- -- -- -- -- -- -- --
2018-01-07 00:00:00 -- -- -- -- -- -- -- -- --
2018-01-06 23:00:00 -- -- -- -- -- -- -- -- --
2018-01-06 22:00:00 -- -- -- -- -- -- -- -- --
2018-01-06 21:00:00 -- -- -- -- -- -- -- -- --
2018-01-06 20:00:00 -- -- -- -- -- -- -- -- --
2018-01-06 19:00:00 -- -- -- -- -- -- -- -- --
2018-01-06 18:00:00 5.9 9 Oeste 20 Noroeste 1.2 -- -- 94
2018-01-06 17:00:00 8 11 Noroeste 18 Noroeste 0 -- -- 77
2018-01-06 16:00:00 9.2 4 Norte 16 Este 0 -- -- 74
2018-01-06 15:00:00 9.2 8 Nordeste 17 Nordeste 0 -- -- 71
2018-01-06 14:00:00 9.3 8 Norte 14 Norte 0 -- -- 72
2018-01-06 13:00:00 7.9 5 Nordeste 11 Este 0 -- -- 78
2018-01-06 12:00:00 7 0 Calma 10 Oeste 0 -- -- 83
2018-01-06 11:00:00 6.6 0 Calma 9 Nordeste 0 -- -- 86
2018-01-06 10:00:00 5.2 0 Calma 12 Oeste 0 -- -- 90
2018-01-06 09:00:00 5 3 Noroeste 23 Noroeste 0 -- -- 90
2018-01-06 08:00:00 6.8 9 Noroeste 19 Noroeste 0 -- -- 77
2018-01-06 07:00:00 5.8 3 Sudoeste 10 Sudeste 0 -- -- 80
2018-01-06 06:00:00 4.6 0 Calma 9 Oeste 0 -- -- 84
2018-01-06 05:00:00 3.7 8 Oeste 11 Sudoeste 0 -- -- 86
2018-01-06 04:00:00 3.5 5 Oeste 14 Oeste 0 -- -- 83
2018-01-06 03:00:00 4.9 5 Oeste 7 Oeste 0 -- -- 83
2018-01-06 02:00:00 3.2 0 Calma -- -- 0 -- -- 86
2018-01-06 01:00:00 3.6 0 Calma 8 Oeste 0 -- -- 83
2018-01-06 00:00:00 4.5 0 Calma -- -- 0 -- -- 79
2018-01-05 23:00:00 5.1 0 Calma 7 Oeste 0 -- -- 76
2018-01-05 22:00:00 6.1 0 Calma 6 Sudeste 0 -- -- 72
2018-01-05 21:00:00 8.3 0 Calma 8 Sudeste 0 -- -- 65
2018-01-05 20:00:00 9.6 3 Sur 8 Sur 0 -- -- 59
2018-01-05 19:00:00 12 0 Calma 9 Oeste 0 -- -- 52
2018-01-05 18:00:00 14.6 3 Oeste 19 Oeste 0 -- -- 46
2018-01-05 17:00:00 16.8 10 Oeste 22 Oeste 0 -- -- 41
2018-01-05 16:00:00 17.2 14 Oeste 32 Oeste 0 -- -- 41
2018-01-05 15:00:00 17.3 8 Noroeste 19 Noroeste 0 -- -- 44
2018-01-05 14:00:00 15.1 7 Noroeste 21 Oeste 0 -- -- 48
2018-01-05 13:00:00 16 12 Oeste 22 Sudoeste 0 -- -- 49
2018-01-05 12:00:00 15.8 6 Sudoeste 19 Sudoeste 0 -- -- 52
2018-01-05 11:00:00 12.5 2 Noroeste 12 Noroeste 0 -- -- 64
2018-01-05 10:00:00 8.8 4 Sur 10 Sur 0 -- -- 76
2018-01-05 09:00:00 6.5 3 Sudoeste 9 Sudoeste 0 -- -- 83
2018-01-05 08:00:00 7.1 4 Sudoeste 13 Sur 0 -- -- 82
2018-01-05 07:00:00 7.9 3 Oeste 10 Oeste 0 -- -- 77
2018-01-05 06:00:00 8.1 0 Calma 13 Sudoeste 0 -- -- 76
2018-01-05 05:00:00 10.4 8 Sudoeste 26 Sudoeste 0 -- -- 70
2018-01-05 04:00:00 10.6 8 Oeste 17 Oeste 0 -- -- 71
2018-01-05 03:00:00 10.6 0 Calma 8 Nordeste 0 -- -- 70
2018-01-05 02:00:00 11.3 6 Sudoeste 12 Sudoeste 0 -- -- 67
2018-01-05 01:00:00 12.3 6 Sur 13 Sur 0 -- -- 64
2018-01-05 00:00:00 13 5 Sudoeste 17 Sur 0 -- -- 63
2018-01-04 23:00:00 13.9 13 Sudoeste 30 Sudoeste 0 -- -- 59
2018-01-04 22:00:00 13.9 12 Sudoeste 25 Oeste 0 -- -- 59
2018-01-04 21:00:00 13.2 10 Sudoeste 22 Oeste 0 -- -- 60
2018-01-04 20:00:00 14.4 16 Oeste 38 Oeste 0 -- -- 56
2018-01-04 19:00:00 15 23 Oeste 40 Oeste 0 -- -- 53
2018-01-04 18:00:00 15.8 20 Oeste 42 Oeste 0 -- -- 50
2018-01-04 17:00:00 18 21 Oeste 39 Oeste 0 -- -- 44
2018-01-04 16:00:00 19 22 Oeste 44 Oeste 0 -- -- 43
2018-01-04 15:00:00 19.4 18 Oeste 41 Oeste 0 -- -- 43
2018-01-04 14:00:00 19 24 Oeste 42 Oeste 0 -- -- 44
2018-01-04 13:00:00 18.4 25 Oeste 49 Oeste 0 -- -- 46
2018-01-04 12:00:00 18.4 24 Oeste 43 Oeste 0 -- -- 49
2018-01-04 11:00:00 17.3 17 Oeste 33 Oeste 0 -- -- 56
2018-01-04 10:00:00 14.8 13 Oeste 23 Oeste 0 -- -- 68
2018-01-04 09:00:00 9.3 0 Calma 16 Oeste 0 -- -- 86
2018-01-04 08:00:00 10.4 5 Oeste 10 Oeste 0 -- -- 84
2018-01-04 07:00:00 10.3 3 Oeste 11 Sudoeste 0 -- -- 83
2018-01-04 06:00:00 11.6 4 Oeste 9 Sudoeste 0 -- -- 79
2018-01-04 05:00:00 13.4 5 Oeste 19 Oeste 0 -- -- 72
2018-01-04 04:00:00 13.4 7 Oeste 14 Oeste 0 -- -- 75
2018-01-04 03:00:00 14.1 8 Oeste 23 Oeste 0 -- -- 71
2018-01-04 02:00:00 14.6 13 Oeste 20 Oeste 0 -- -- 71
2018-01-04 01:00:00 12.5 0 Calma 12 Sudoeste 0 -- -- 76
2018-01-04 00:00:00 13.6 3 Sudoeste 18 Oeste 0 -- -- 73
2018-01-03 23:00:00 12.1 3 Sudoeste 8 Oeste 0 -- -- 79
2018-01-03 22:00:00 11.8 3 Sur 9 Sur 0 -- -- 78
2018-01-03 21:00:00 12.9 3 Sur 9 Oeste 0 -- -- 72
2018-01-03 20:00:00 14.2 4 Sudoeste 12 Oeste 0 -- -- 67
2018-01-03 19:00:00 15.2 7 Sudoeste 27 Oeste 0 -- -- 64
2018-01-03 18:00:00 16.6 15 Oeste 40 Oeste 0 -- -- 59
2018-01-03 17:00:00 18.2 22 Oeste 45 Oeste 0 -- -- 54
2018-01-03 16:00:00 19.2 26 Oeste 44 Oeste 0 -- -- 51
2018-01-03 15:00:00 19.8 22 Oeste 45 Oeste 0 -- -- 49
2018-01-03 14:00:00 19.5 25 Oeste 46 Oeste 0 -- -- 51
2018-01-03 13:00:00 18.8 25 Noroeste 47 Noroeste 0 -- -- 52
2018-01-03 12:00:00 18.5 23 Oeste 40 Oeste 0 -- -- 53
2018-01-03 11:00:00 17.4 17 Oeste 32 Oeste 0 -- -- 58
2018-01-03 10:00:00 14.7 11 Oeste 21 Oeste 0 -- -- 68
2018-01-03 09:00:00 13.8 14 Oeste 26 Oeste 0 -- -- 71
2018-01-03 08:00:00 11.2 8 Oeste 15 Sudoeste 0 -- -- 86
2018-01-03 07:00:00 8.3 4 Sudoeste 8 Sudoeste 0 -- -- 94
2018-01-03 06:00:00 8.3 3 Sur 6 Sur 0 -- -- 93
2018-01-03 05:00:00 8.3 0 Calma 8 Sudoeste 0 -- -- 93
2018-01-03 04:00:00 8.5 0 Calma 5 Sur 0 -- -- 92
2018-01-03 03:00:00 8.6 0 Calma 4 Sur 0 -- -- 89
2018-01-03 02:00:00 8 0 Calma 5 Sur 0 -- -- 88
2018-01-03 01:00:00 7.8 0 Calma 5 Sur 0 -- -- 86
2018-01-03 00:00:00 9.4 3 Sur 8 Oeste 0 -- -- 80
2018-01-02 23:00:00 10.2 0 Calma 7 Oeste 0 -- -- 75
2018-01-02 22:00:00 12.8 5 Oeste 16 Oeste 0 -- -- 68
2018-01-02 21:00:00 12.3 9 Oeste 17 Oeste 0 -- -- 68
2018-01-02 20:00:00 12.5 0 Calma 24 Noroeste 0 -- -- 63
2018-01-02 19:00:00 14 13 Oeste 28 Noroeste 0 -- -- 58
2018-01-02 18:00:00 14.6 12 Oeste 37 Oeste 0 -- -- 54
2018-01-02 17:00:00 16.3 23 Oeste 44 Oeste 0 -- -- 50
2018-01-02 16:00:00 16.7 23 Oeste 49 Oeste 0 -- -- 48
2018-01-02 15:00:00 17.6 24 Oeste 47 Oeste 0 -- -- 45
2018-01-02 14:00:00 17.2 23 Oeste 44 Oeste 0 -- -- 45
2018-01-02 13:00:00 16.1 25 Oeste 46 Noroeste 0 -- -- 48
2018-01-02 12:00:00 15.3 23 Oeste 45 Oeste 0 -- -- 49
2018-01-02 11:00:00 13.5 15 Oeste 32 Noroeste 0 -- -- 56
2018-01-02 10:00:00 10.5 7 Oeste 17 Oeste 0 -- -- 71
2018-01-02 09:00:00 6.7 5 Sudoeste 11 Oeste 0 -- -- 95
2018-01-02 08:00:00 8.2 7 Oeste 15 Oeste 0 -- -- 87
2018-01-02 07:00:00 8.5 0 Calma -- -- 0 -- -- 89
2018-01-02 06:00:00 9.1 0 Calma 5 Oeste 0 -- -- 87
2018-01-02 05:00:00 9.5 2 Oeste 17 Oeste 0 -- -- 86
2018-01-02 04:00:00 9.5 8 Oeste 37 Noroeste 0 -- -- 82
2018-01-02 03:00:00 10 9 Oeste 31 Noroeste 0 -- -- 80
2018-01-02 02:00:00 10.1 12 Noroeste 24 Noroeste 0 -- -- 79
2018-01-02 01:00:00 11.1 9 Noroeste 13 Noroeste 0 -- -- 64
2018-01-02 00:00:00 12.3 5 Noroeste 22 Oeste 0 -- -- 58
2018-01-01 23:00:00 11.6 7 Sudoeste 26 Oeste 0 -- -- 56
2018-01-01 22:00:00 12.9 17 Oeste 49 Oeste 0 -- -- 52
2018-01-01 21:00:00 12.7 11 Oeste 39 Oeste 0 -- -- 49
2018-01-01 20:00:00 13 20 Oeste 38 Oeste 0 -- -- 46
2018-01-01 19:00:00 12.9 17 Oeste 35 Oeste 0 -- -- 45
2018-01-01 18:00:00 12.5 19 Oeste 40 Sudoeste 0 -- -- 42
2018-01-01 17:00:00 13.6 18 Oeste 46 Oeste 0 -- -- 39
2018-01-01 16:00:00 14.5 17 Oeste 50 Oeste 0 -- -- 34
2018-01-01 15:00:00 14.6 26 Oeste 48 Oeste 0 -- -- 30
2018-01-01 14:00:00 14 13 Noroeste 27 Noroeste 0 -- -- 33
2018-01-01 13:00:00 13.1 3 Oeste 22 Noroeste 0 -- -- 37
2018-01-01 12:00:00 12.4 4 Oeste 16 Sudoeste 0 -- -- 39
2018-01-01 11:00:00 10.6 8 Sudoeste 17 Sudoeste 0 -- -- 47
2018-01-01 10:00:00 7.7 3 Sudoeste 10 Oeste 0 -- -- 58
2018-01-01 09:00:00 5.3 6 Oeste 21 Oeste 0 -- -- 63
2018-01-01 08:00:00 4.1 5 Sudoeste 13 Oeste 0 -- -- 67
2018-01-01 07:00:00 6.3 8 Noroeste 25 Oeste 0 -- -- 59
2018-01-01 06:00:00 6.7 10 Oeste 21 Oeste 0 -- -- 58
2018-01-01 05:00:00 7.1 11 Oeste 27 Oeste 0 -- -- 57
2018-01-01 04:00:00 7.1 13 Oeste 24 Oeste 0 -- -- 60
2018-01-01 03:00:00 6.6 11 Oeste 27 Oeste 0 -- -- 61
2018-01-01 02:00:00 6.7 10 Oeste 23 Oeste 0 -- -- 73
2018-01-01 01:00:00 5.9 10 Oeste 21 Oeste 0 -- -- 78
2018-01-01 00:00:00 7.2 12 Oeste 33 Oeste 0 -- -- 74
2017-12-31 23:00:00 8 17 Oeste 46 Oeste 0 -- -- 74
2017-12-31 22:00:00 9.5 26 Noroeste 61 Oeste 0 -- -- 67
2017-12-31 21:00:00 12.9 24 Oeste 45 Oeste 0 -- -- 55
2017-12-31 20:00:00 13.2 13 Oeste 26 Sudoeste 0 -- -- 52
2017-12-31 19:00:00 13.1 14 Oeste 30 Oeste 0 -- -- 51
2017-12-31 18:00:00 13.5 21 Oeste 37 Oeste 0 -- -- 50
2017-12-31 17:00:00 13.1 3 Noroeste 16 Oeste 0 -- -- 60
2017-12-31 16:00:00 12.4 3 Sudoeste 6 Sudoeste 0 -- -- 61
2017-12-31 15:00:00 12.2 3 Sur 7 Noroeste 0 -- -- 60
2017-12-31 14:00:00 11.6 0 Calma 6 Oeste 0 -- -- 62
2017-12-31 13:00:00 10.7 3 Oeste 9 Sudoeste 0 -- -- 65
2017-12-31 12:00:00 8.3 5 Sur 9 Sur 0 -- -- 75
2017-12-31 11:00:00 6.1 0 Calma 7 Sudoeste 0 -- -- 85
2017-12-31 10:00:00 3.5 0 Calma 4 Sudoeste 0 -- -- 94
2017-12-31 09:00:00 2.9 0 Calma -- -- 0 -- -- 93
2017-12-31 08:00:00 3.3 0 Calma 6 Oeste 0 -- -- 91
2017-12-31 07:00:00 2.9 0 Calma 10 Sudoeste 0 -- -- 94
2017-12-31 06:00:00 2.5 2 Sudoeste 8 Sur 0 -- -- 97
2017-12-31 05:00:00 2.8 0 Calma 5 Sudoeste 0 -- -- 96
2017-12-31 04:00:00 3 0 Calma 6 Oeste 0 -- -- 94
2017-12-31 03:00:00 4.8 0 Calma 8 Sudoeste 0 -- -- 93
2017-12-31 02:00:00 4.6 0 Calma 8 Sudoeste 0 -- -- 92
2017-12-31 01:00:00 5 5 Oeste 8 Oeste 0 -- -- 92